WetterOnline ( https://www.wetteronline.de )

Wetter aktuell Bonn

Aktuelles Wetter: Königswinter-Heiderhof (147m)

6-stündlich | Neueste Meldungen
Ortszeit Temperatur Wetter
Fr, 27.05. 14:00 16.5° C wolkig
Fr, 27.05. 8:00 13.1° C Sprühregen
Fr, 27.05. 2:00 15.3° C bedeckt
Do, 26.05. 20:00 19.5° C wolkig
Do, 26.05. 14:00 19.5° C wolkig
Do, 26.05. 8:00 14.6° C wolkig
Do, 26.05. 2:00 15.3° C bedeckt
Mi, 25.05. 20:00 17.9° C bedeckt
Ortszeit Temperatur Wetter
Fr, 27.05. 18:00 18.1° C leicht bewölkt
Fr, 27.05. 17:30 18.8° C fast wolkenlos
Fr, 27.05. 17:20 18.8° C fast wolkenlos
Fr, 27.05. 17:10 18.6° C fast wolkenlos
Fr, 27.05. 17:00 19.0° C leicht bewölkt
Fr, 27.05. 16:50 19.0° C leicht bewölkt
Fr, 27.05. 16:30 18.4° C leicht bewölkt
Fr, 27.05. 16:00 17.9° C leicht bewölkt
Fr, 27.05. 15:30 18.2° C wolkig
Fr, 27.05. 15:00 17.9° C leicht bewölkt
Ortszeit Relative Feuchte Sichtweite
Fr, 27.05. 14:00 72% 60 km
Fr, 27.05. 8:00 91% 11 km
Fr, 27.05. 2:00 74% 55 km
Do, 26.05. 20:00 54% >70 km
Do, 26.05. 14:00 51% >70 km
Do, 26.05. 8:00 76% 65 km
Do, 26.05. 2:00 62% >70 km
Mi, 25.05. 20:00 44% >70 km
Ortszeit Relative Feuchte Sichtweite
Fr, 27.05. 18:00 45% 60 km
Fr, 27.05. 17:30 44% 55 km
Fr, 27.05. 17:20 44% -
Fr, 27.05. 17:10 42% -
Fr, 27.05. 17:00 45% 50 km
Fr, 27.05. 16:50 45% -
Fr, 27.05. 16:30 47% 45 km
Fr, 27.05. 16:00 50% 55 km
Fr, 27.05. 15:30 57% 45 km
Fr, 27.05. 15:00 59% 55 km
Ortszeit Niederschlagsmenge Niederschlagsart
Fr, 27.05. 14:00 3 l/m2 in 6 Std. Regen
Fr, 27.05. 8:00 0.1 l/m2 in 12 Std. Regen
Fr, 27.05. 2:00 0.0 l/m2 in 6 Std. -
Do, 26.05. 20:00 0.0 l/m2 in 12 Std. -
Do, 26.05. 14:00 0.0 l/m2 in 6 Std. -
Do, 26.05. 8:00 0.1 l/m2 in 12 Std. -
Do, 26.05. 2:00 0.1 l/m2 in 6 Std. Regen
Mi, 25.05. 20:00 0.0 l/m2 in 12 Std. -
Ortszeit Niederschlagsmenge Niederschlagsart
Fr, 27.05. 18:00 0.0 l/m2 in 1 Std. -
Fr, 27.05. 17:30 0.0 l/m2 in 1 Std. -
Fr, 27.05. 17:20 keine Meldung -
Fr, 27.05. 17:10 keine Meldung -
Fr, 27.05. 17:00 0.0 l/m2 in 1 Std. Regen
Fr, 27.05. 16:50 keine Meldung -
Fr, 27.05. 16:30 0.0 l/m2 in 1 Std. -
Fr, 27.05. 16:00 0.0 l/m2 in 1 Std. -
Fr, 27.05. 15:30 0.0 l/m2 in 1 Std. -
Fr, 27.05. 15:00 0.1 l/m2 in 1 Std. Regen
Ortszeit Stärke Spitze Richtung
km/h Bft. km/h Grad Sektor
Fr, 27.05. 14:00 13 3 33 300° NW
Fr, 27.05. 8:00 18 3 40 250° W
Fr, 27.05. 2:00 15 3 33 260° W
Do, 26.05. 20:00 17 3 35 260° W
Do, 26.05. 14:00 18 3 36 270° W
Do, 26.05. 8:00 11 2 36 250° W
Do, 26.05. 2:00 18 3 36 250° W
Mi, 25.05. 20:00 18 3 36 270° W
Ortszeit Stärke Spitze Richtung
km/h Bft. km/h Grad Sektor
Fr, 27.05. 18:00 20 4 39 300° NW
Fr, 27.05. 17:30 18 3 40 300° NW
Fr, 27.05. 17:20 18 3 - 300° NW
Fr, 27.05. 17:10 18 3 - 300° NW
Fr, 27.05. 17:00 20 4 41 280° W
Fr, 27.05. 16:50 20 4 - 280° W
Fr, 27.05. 16:30 17 3 37 320° NW
Fr, 27.05. 16:00 19 3 39 310° NW
Fr, 27.05. 15:30 14 3 36 290° W
Fr, 27.05. 15:00 22 4 37 270° W
Ortszeit Untergrenze Bedeckung Gattung
total tief tief mittel hoch
Fr, 27.05. 14:00 1500 m 5/8 5/8 - - -
Fr, 27.05. 8:00 360 m 8/8 8/8 - - -
Fr, 27.05. 2:00 1140 m 8/8 8/8 - - -
Do, 26.05. 20:00 7200 m 8/8 0/8 - - -
Do, 26.05. 14:00 1380 m 5/8 4/8 - - -
Do, 26.05. 8:00 690 m 6/8 6/8 - - -
Do, 26.05. 2:00 1170 m 8/8 8/8 - - -
Mi, 25.05. 20:00 2100 m 8/8 8/8 - - -
Ortszeit Bedeckungsgrad in Achtel und Wolkenuntergrenze
Fr, 27.05. 18:00 3(1500m)
Fr, 27.05. 17:30 1(1800m)
Fr, 27.05. 17:20 1(1800m)
Fr, 27.05. 17:10 1
Fr, 27.05. 17:00 2(1500m)
Fr, 27.05. 16:50 2(1500m) 2(1800m)
Fr, 27.05. 16:30 4(1500m) 4(2100m)
Fr, 27.05. 16:00 3(1500m)
Fr, 27.05. 15:30 3(1350m) 4(1500m) 5(2100m)
Fr, 27.05. 15:00 2(1290m) 3(2100m)
Ortszeit Luftdruck NN (hPa) Tendenz (hPa in 3 Std.)
Fr, 27.05. 14:00 1021 - 0,8
Fr, 27.05. 8:00 1021 - 0,1
Fr, 27.05. 2:00 1021 - 0,5
Do, 26.05. 20:00 1021 - 0,8
Do, 26.05. 14:00 1022 + 0,4
Do, 26.05. 8:00 1021 + 1,4
Do, 26.05. 2:00 1019 + 0,5
Mi, 25.05. 20:00 1017 + 0,8
Ortszeit Luftdruck NN (hPa) Tendenz (hPa in 3 Std.)
Fr, 27.05. 18:00 1021 + 0,3
Fr, 27.05. 17:30 1020 - 0,2
Fr, 27.05. 17:20 1020 keine Meldung
Fr, 27.05. 17:10 1021 keine Meldung
Fr, 27.05. 17:00 1020 - 0,3
Fr, 27.05. 16:50 1020 keine Meldung
Fr, 27.05. 16:30 1020 - 0,7
Fr, 27.05. 16:00 1020 - 0,8
Fr, 27.05. 15:30 1020 - 1,0
Fr, 27.05. 15:00 1020 - 1,2
Ortszeit Schneehöhe (cm)
Fr, 27.05. 14:00 0
Fr, 27.05. 8:00 0
Fr, 27.05. 2:00 0
Do, 26.05. 20:00 0
Do, 26.05. 14:00 0
Do, 26.05. 8:00 0
Do, 26.05. 2:00 0
Mi, 25.05. 20:00 0
Ortszeit Schneehöhe (cm)
Fr, 27.05. 18:00 0
Fr, 27.05. 17:30 0
Fr, 27.05. 17:20 0
Fr, 27.05. 17:10 0
Fr, 27.05. 17:00 0
Fr, 27.05. 16:50 0
Fr, 27.05. 16:30 0
Fr, 27.05. 16:00 0
Fr, 27.05. 15:30 0
Fr, 27.05. 15:00 0
Link zu dieser Seite / Seite empfehlen

Das Wetter in ...